Huvudsida
METAR-TAF:

METAR-TAF

Flygplatser :

Kastrups flygplats

Köpenhamn, Danmark

latitud: 55-37N, longitud: 012-39E, höjd: 5 m

Aktuellt väderrapport

Denna rapport gjordes för 27 minuter sedan, klockan 17:50 UTC
Vind 7 kt från syd
Temperatur 2°C
Fuktighet 75%
Tryck 1015 hPa
Sikt 10 km eller mer
Brutna moln på en höjd av 2800 ft

METAR: EKCH 161750Z 17007KT 9999 BKN028 02/M02 Q1015 NOSIG

Tid: 19:17 (18:17 UTC)

Väderprognos

Denna rapport gjordes för 1 timme och 17 minuter sedan, klockan 17:00 UTC
Prognos gäller från 16 kl. 18 UTC till 17 kl. 18 UTC
Vind 10 kt från syd
Sikt 10 km eller mer
Brutna moln på en höjd av 2500 ft

TAF: EKCH 161700Z 1618/1718 17010KT 9999 BKN025

Aktuella väderrapporter och prognoser från 4000 flygplatser (METAR- och TAF-rapporter).

De tillgängliga stationerna syns som gula och röda prickar på kartan.

För musen över prickarna för att se namnen på stationerna.

Klicka sedan för att få väderrapporter och prognoser.

För att ändra kartan: Klicka på de gröna knapparna med ett svart kors på för att zooma in; den gröna knappen med ett streck på för att zooma ut; eller på de gröna pilarna för angränsande kartor.


METAR-TAF: